sensor_id;sensor_type;location;lat;lon;timestamp;P1;durP1;ratioP1;P2;durP2;ratioP2
4963;SDS011;2497;47.410;9.740;2023-02-12T00:00:21;22.90;;;8.50;;
4963;SDS011;2497;47.410;9.740;2023-02-12T00:02:50;20.13;;;8.00;;
4963;SDS011;2497;47.410;9.740;2023-02-12T00:05:17;17.27;;;6.60;;
4963;SDS011;2497;47.410;9.740;2023-02-12T00:07:44;19.83;;;6.93;;
4963;SDS011;2497;47.410;9.740;2023-02-12T00:10:11;12.77;;;7.40;;
4963;SDS011;2497;47.410;9.740;2023-02-12T00:12:38;14.75;;;7.63;;
4963;SDS011;2497;47.410;9.740;2023-02-12T00:15:06;20.93;;;7.93;;
4963;SDS011;2497;47.410;9.740;2023-02-12T00:17:33;16.10;;;7.18;;
4963;SDS011;2497;47.410;9.740;2023-02-12T00:20:02;21.20;;;7.40;;
4963;SDS011;2497;47.410;9.740;2023-02-12T00:22:29;12.30;;;6.33;;
4963;SDS011;2497;47.410;9.740;2023-02-12T00:24:56;14.55;;;7.47;;
4963;SDS011;2497;47.410;9.740;2023-02-12T00:27:23;13.90;;;5.45;;
4963;SDS011;2497;47.410;9.740;2023-02-12T00:29:51;12.18;;;6.07;;
4963;SDS011;2497;47.410;9.740;2023-02-12T00:32:18;13.15;;;5.75;;
4963;SDS011;2497;47.410;9.740;2023-02-12T00:34:45;15.30;;;7.15;;
4963;SDS011;2497;47.410;9.740;2023-02-12T00:37:14;15.18;;;6.03;;
4963;SDS011;2497;47.410;9.740;2023-02-12T00:39:41;12.95;;;5.47;;
4963;SDS011;2497;47.410;9.740;2023-02-12T00:42:08;8.40;;;4.80;;
4963;SDS011;2497;47.410;9.740;2023-02-12T00:44:36;7.95;;;4.15;;
4963;SDS011;2497;47.410;9.740;2023-02-12T00:47:03;11.88;;;5.03;;
4963;SDS011;2497;47.410;9.740;2023-02-12T00:49:30;11.00;;;4.70;;
4963;SDS011;2497;47.410;9.740;2023-02-12T00:51:58;11.45;;;4.50;;
4963;SDS011;2497;47.410;9.740;2023-02-12T00:54:27;7.10;;;3.67;;
4963;SDS011;2497;47.410;9.740;2023-02-12T00:56:55;7.28;;;3.25;;
4963;SDS011;2497;47.410;9.740;2023-02-12T00:59:23;7.40;;;3.92;;
4963;SDS011;2497;47.410;9.740;2023-02-12T01:01:51;10.52;;;4.78;;
4963;SDS011;2497;47.410;9.740;2023-02-12T01:04:20;7.33;;;3.00;;
4963;SDS011;2497;47.410;9.740;2023-02-12T01:06:47;7.18;;;3.72;;
4963;SDS011;2497;47.410;9.740;2023-02-12T01:09:14;3.83;;;3.05;;
4963;SDS011;2497;47.410;9.740;2023-02-12T01:11:43;4.05;;;2.90;;
4963;SDS011;2497;47.410;9.740;2023-02-12T01:14:10;5.65;;;2.97;;
4963;SDS011;2497;47.410;9.740;2023-02-12T01:16:37;7.82;;;2.50;;
4963;SDS011;2497;47.410;9.740;2023-02-12T01:19:04;2.95;;;2.00;;
4963;SDS011;2497;47.410;9.740;2023-02-12T01:21:32;3.90;;;2.15;;
4963;SDS011;2497;47.410;9.740;2023-02-12T01:24:00;9.10;;;5.63;;
4963;SDS011;2497;47.410;9.740;2023-02-12T01:26:28;12.00;;;6.65;;
4963;SDS011;2497;47.410;9.740;2023-02-12T01:28:58;14.25;;;6.18;;
4963;SDS011;2497;47.410;9.740;2023-02-12T01:31:28;21.90;;;9.43;;
4963;SDS011;2497;47.410;9.740;2023-02-12T01:33:56;13.52;;;7.93;;
4963;SDS011;2497;47.410;9.740;2023-02-12T01:36:25;11.55;;;5.80;;
4963;SDS011;2497;47.410;9.740;2023-02-12T01:38:53;10.85;;;5.53;;
4963;SDS011;2497;47.410;9.740;2023-02-12T01:41:22;9.60;;;5.45;;
4963;SDS011;2497;47.410;9.740;2023-02-12T01:44:09;12.88;;;5.55;;
4963;SDS011;2497;47.410;9.740;2023-02-12T01:46:38;11.73;;;5.60;;
4963;SDS011;2497;47.410;9.740;2023-02-12T01:49:06;9.02;;;4.88;;
4963;SDS011;2497;47.410;9.740;2023-02-12T01:51:37;6.57;;;3.92;;
4963;SDS011;2497;47.410;9.740;2023-02-12T01:54:06;8.43;;;4.15;;
4963;SDS011;2497;47.410;9.740;2023-02-12T01:56:35;5.28;;;3.33;;
4963;SDS011;2497;47.410;9.740;2023-02-12T01:59:03;6.47;;;3.97;;
4963;SDS011;2497;47.410;9.740;2023-02-12T02:01:32;4.35;;;2.50;;
4963;SDS011;2497;47.410;9.740;2023-02-12T02:04:00;7.35;;;3.97;;
4963;SDS011;2497;47.410;9.740;2023-02-12T02:06:33;5.82;;;3.20;;
4963;SDS011;2497;47.410;9.740;2023-02-12T02:09:03;3.53;;;2.75;;
4963;SDS011;2497;47.410;9.740;2023-02-12T02:11:31;6.72;;;3.10;;
4963;SDS011;2497;47.410;9.740;2023-02-12T02:14:16;4.72;;;2.38;;
4963;SDS011;2497;47.410;9.740;2023-02-12T02:20:11;5.13;;;2.53;;
4963;SDS011;2497;47.410;9.740;2023-02-12T02:23:27;3.00;;;2.50;;
4963;SDS011;2497;47.410;9.740;2023-02-12T02:26:21;4.53;;;3.10;;
4963;SDS011;2497;47.410;9.740;2023-02-12T02:29:08;4.50;;;2.90;;
4963;SDS011;2497;47.410;9.740;2023-02-12T02:31:48;4.97;;;2.53;;
4963;SDS011;2497;47.410;9.740;2023-02-12T02:34:25;5.50;;;2.78;;
4963;SDS011;2497;47.410;9.740;2023-02-12T02:37:01;7.13;;;3.45;;
4963;SDS011;2497;47.410;9.740;2023-02-12T02:39:35;5.50;;;2.97;;
4963;SDS011;2497;47.410;9.740;2023-02-12T02:42:07;8.52;;;4.88;;
4963;SDS011;2497;47.410;9.740;2023-02-12T02:44:41;9.85;;;3.30;;
4963;SDS011;2497;47.410;9.740;2023-02-12T02:47:20;6.78;;;3.08;;
4963;SDS011;2497;47.410;9.740;2023-02-12T02:49:53;10.65;;;2.90;;
4963;SDS011;2497;47.410;9.740;2023-02-12T02:52:25;7.05;;;3.22;;
4963;SDS011;2497;47.410;9.740;2023-02-12T02:55:01;7.57;;;3.70;;
4963;SDS011;2497;47.410;9.740;2023-02-12T02:57:34;6.35;;;2.90;;
4963;SDS011;2497;47.410;9.740;2023-02-12T03:00:06;3.00;;;2.20;;
4963;SDS011;2497;47.410;9.740;2023-02-12T03:02:40;5.38;;;3.40;;
4963;SDS011;2497;47.410;9.740;2023-02-12T03:05:13;5.25;;;2.97;;
4963;SDS011;2497;47.410;9.740;2023-02-12T03:07:48;7.45;;;3.08;;
4963;SDS011;2497;47.410;9.740;2023-02-12T03:10:19;5.57;;;2.53;;
4963;SDS011;2497;47.410;9.740;2023-02-12T03:12:51;6.40;;;3.25;;
4963;SDS011;2497;47.410;9.740;2023-02-12T03:15:23;6.35;;;3.20;;
4963;SDS011;2497;47.410;9.740;2023-02-12T03:17:57;10.68;;;3.88;;
4963;SDS011;2497;47.410;9.740;2023-02-12T03:20:27;10.57;;;4.03;;
4963;SDS011;2497;47.410;9.740;2023-02-12T03:22:57;9.98;;;4.65;;
4963;SDS011;2497;47.410;9.740;2023-02-12T03:25:29;4.25;;;2.80;;
4963;SDS011;2497;47.410;9.740;2023-02-12T03:28:01;6.47;;;3.35;;
4963;SDS011;2497;47.410;9.740;2023-02-12T03:30:36;9.73;;;3.90;;
4963;SDS011;2497;47.410;9.740;2023-02-12T03:33:12;7.28;;;4.30;;
4963;SDS011;2497;47.410;9.740;2023-02-12T03:35:46;9.13;;;3.88;;
4963;SDS011;2497;47.410;9.740;2023-02-12T03:38:25;11.45;;;3.30;;
4963;SDS011;2497;47.410;9.740;2023-02-12T03:41:03;5.93;;;4.40;;
4963;SDS011;2497;47.410;9.740;2023-02-12T03:43:37;7.57;;;3.45;;
4963;SDS011;2497;47.410;9.740;2023-02-12T03:46:11;9.70;;;4.57;;
4963;SDS011;2497;47.410;9.740;2023-02-12T03:48:45;8.05;;;4.40;;
4963;SDS011;2497;47.410;9.740;2023-02-12T03:51:22;10.20;;;4.00;;
4963;SDS011;2497;47.410;9.740;2023-02-12T03:53:54;9.63;;;3.47;;
4963;SDS011;2497;47.410;9.740;2023-02-12T03:56:23;6.65;;;4.43;;
4963;SDS011;2497;47.410;9.740;2023-02-12T03:58:53;4.95;;;2.72;;
4963;SDS011;2497;47.410;9.740;2023-02-12T04:01:21;4.03;;;2.90;;
4963;SDS011;2497;47.410;9.740;2023-02-12T04:03:49;9.25;;;3.97;;
4963;SDS011;2497;47.410;9.740;2023-02-12T04:06:20;6.78;;;3.40;;
4963;SDS011;2497;47.410;9.740;2023-02-12T04:08:58;5.55;;;2.75;;
4963;SDS011;2497;47.410;9.740;2023-02-12T04:11:29;6.07;;;3.22;;
4963;SDS011;2497;47.410;9.740;2023-02-12T04:14:08;6.82;;;3.30;;
4963;SDS011;2497;47.410;9.740;2023-02-12T04:16:44;6.53;;;3.50;;
4963;SDS011;2497;47.410;9.740;2023-02-12T04:19:22;8.85;;;2.95;;
4963;SDS011;2497;47.410;9.740;2023-02-12T04:21:59;10.18;;;3.30;;
4963;SDS011;2497;47.410;9.740;2023-02-12T04:24:39;5.57;;;3.30;;
4963;SDS011;2497;47.410;9.740;2023-02-12T04:27:16;13.13;;;3.45;;
4963;SDS011;2497;47.410;9.740;2023-02-12T04:29:49;6.45;;;3.40;;
4963;SDS011;2497;47.410;9.740;2023-02-12T04:32:19;9.10;;;4.55;;
4963;SDS011;2497;47.410;9.740;2023-02-12T04:34:56;10.45;;;2.90;;
4963;SDS011;2497;47.410;9.740;2023-02-12T04:37:28;8.20;;;3.42;;
4963;SDS011;2497;47.410;9.740;2023-02-12T04:40:02;7.25;;;4.28;;
4963;SDS011;2497;47.410;9.740;2023-02-12T04:42:31;6.13;;;4.03;;
4963;SDS011;2497;47.410;9.740;2023-02-12T04:45:08;6.15;;;4.00;;
4963;SDS011;2497;47.410;9.740;2023-02-12T04:47:36;8.23;;;4.82;;
4963;SDS011;2497;47.410;9.740;2023-02-12T04:50:05;10.68;;;5.85;;
4963;SDS011;2497;47.410;9.740;2023-02-12T04:52:33;11.05;;;4.47;;
4963;SDS011;2497;47.410;9.740;2023-02-12T04:55:00;8.38;;;4.55;;
4963;SDS011;2497;47.410;9.740;2023-02-12T04:57:27;9.68;;;3.83;;
4963;SDS011;2497;47.410;9.740;2023-02-12T04:59:56;9.02;;;4.60;;
4963;SDS011;2497;47.410;9.740;2023-02-12T05:02:23;8.77;;;4.72;;
4963;SDS011;2497;47.410;9.740;2023-02-12T05:04:50;11.88;;;4.70;;
4963;SDS011;2497;47.410;9.740;2023-02-12T05:07:19;7.53;;;3.78;;
4963;SDS011;2497;47.410;9.740;2023-02-12T05:09:46;8.60;;;3.53;;
4963;SDS011;2497;47.410;9.740;2023-02-12T05:12:14;13.23;;;4.45;;
4963;SDS011;2497;47.410;9.740;2023-02-12T05:14:41;9.75;;;4.68;;
4963;SDS011;2497;47.410;9.740;2023-02-12T05:17:08;6.70;;;3.13;;
4963;SDS011;2497;47.410;9.740;2023-02-12T05:19:35;14.88;;;3.90;;
4963;SDS011;2497;47.410;9.740;2023-02-12T05:22:02;7.10;;;4.00;;
4963;SDS011;2497;47.410;9.740;2023-02-12T05:24:31;6.97;;;3.70;;
4963;SDS011;2497;47.410;9.740;2023-02-12T05:26:58;6.95;;;3.85;;
4963;SDS011;2497;47.410;9.740;2023-02-12T05:29:25;9.25;;;3.80;;
4963;SDS011;2497;47.410;9.740;2023-02-12T05:31:52;7.70;;;3.83;;
4963;SDS011;2497;47.410;9.740;2023-02-12T05:34:19;6.20;;;3.45;;
4963;SDS011;2497;47.410;9.740;2023-02-12T05:36:46;9.15;;;3.80;;
4963;SDS011;2497;47.410;9.740;2023-02-12T05:39:13;5.38;;;3.10;;
4963;SDS011;2497;47.410;9.740;2023-02-12T05:41:42;6.70;;;3.13;;
4963;SDS011;2497;47.410;9.740;2023-02-12T05:44:09;9.43;;;4.32;;
4963;SDS011;2497;47.410;9.740;2023-02-12T05:46:36;5.63;;;3.55;;
4963;SDS011;2497;47.410;9.740;2023-02-12T05:49:04;5.50;;;3.65;;
4963;SDS011;2497;47.410;9.740;2023-02-12T05:51:31;10.15;;;4.25;;
4963;SDS011;2497;47.410;9.740;2023-02-12T05:53:59;6.82;;;3.90;;
4963;SDS011;2497;47.410;9.740;2023-02-12T05:56:28;7.43;;;3.50;;
4963;SDS011;2497;47.410;9.740;2023-02-12T05:58:59;9.23;;;3.45;;
4963;SDS011;2497;47.410;9.740;2023-02-12T06:01:28;5.90;;;3.60;;
4963;SDS011;2497;47.410;9.740;2023-02-12T06:03:57;8.23;;;3.70;;
4963;SDS011;2497;47.410;9.740;2023-02-12T06:06:25;6.60;;;4.40;;
4963;SDS011;2497;47.410;9.740;2023-02-12T06:08:53;8.60;;;4.30;;
4963;SDS011;2497;47.410;9.740;2023-02-12T06:11:21;6.68;;;4.40;;
4963;SDS011;2497;47.410;9.740;2023-02-12T06:13:49;11.13;;;5.57;;
4963;SDS011;2497;47.410;9.740;2023-02-12T06:16:18;10.93;;;7.10;;
4963;SDS011;2497;47.410;9.740;2023-02-12T06:18:47;13.65;;;7.75;;
4963;SDS011;2497;47.410;9.740;2023-02-12T06:21:14;8.40;;;5.60;;
4963;SDS011;2497;47.410;9.740;2023-02-12T06:23:43;10.43;;;5.40;;
4963;SDS011;2497;47.410;9.740;2023-02-12T06:26:10;9.40;;;4.13;;
4963;SDS011;2497;47.410;9.740;2023-02-12T06:28:37;10.13;;;4.97;;
4963;SDS011;2497;47.410;9.740;2023-02-12T06:31:05;12.88;;;4.63;;
4963;SDS011;2497;47.410;9.740;2023-02-12T06:33:44;12.45;;;3.38;;
4963;SDS011;2497;47.410;9.740;2023-02-12T06:36:11;7.85;;;3.97;;
4963;SDS011;2497;47.410;9.740;2023-02-12T06:38:38;14.77;;;5.25;;
4963;SDS011;2497;47.410;9.740;2023-02-12T06:41:06;13.60;;;4.55;;
4963;SDS011;2497;47.410;9.740;2023-02-12T06:43:33;8.80;;;4.00;;
4963;SDS011;2497;47.410;9.740;2023-02-12T06:46:00;9.32;;;4.32;;
4963;SDS011;2497;47.410;9.740;2023-02-12T06:48:29;8.35;;;3.83;;
4963;SDS011;2497;47.410;9.740;2023-02-12T06:51:02;7.85;;;3.22;;
4963;SDS011;2497;47.410;9.740;2023-02-12T06:53:31;8.82;;;4.70;;
4963;SDS011;2497;47.410;9.740;2023-02-12T06:55:59;9.98;;;3.60;;
4963;SDS011;2497;47.410;9.740;2023-02-12T06:58:27;4.57;;;3.00;;
4963;SDS011;2497;47.410;9.740;2023-02-12T07:00:54;12.23;;;4.10;;
4963;SDS011;2497;47.410;9.740;2023-02-12T07:03:21;6.70;;;3.28;;
4963;SDS011;2497;47.410;9.740;2023-02-12T07:05:50;2.28;;;2.03;;
4963;SDS011;2497;47.410;9.740;2023-02-12T07:08:17;6.70;;;2.83;;
4963;SDS011;2497;47.410;9.740;2023-02-12T07:10:47;4.85;;;2.92;;
4963;SDS011;2497;47.410;9.740;2023-02-12T07:13:15;6.45;;;3.10;;
4963;SDS011;2497;47.410;9.740;2023-02-12T07:15:42;9.00;;;2.70;;
4963;SDS011;2497;47.410;9.740;2023-02-12T07:18:09;5.22;;;3.10;;
4963;SDS011;2497;47.410;9.740;2023-02-12T07:20:36;5.18;;;3.10;;
4963;SDS011;2497;47.410;9.740;2023-02-12T07:23:05;6.20;;;4.32;;
4963;SDS011;2497;47.410;9.740;2023-02-12T07:25:32;5.88;;;3.30;;
4963;SDS011;2497;47.410;9.740;2023-02-12T07:27:59;7.45;;;3.83;;
4963;SDS011;2497;47.410;9.740;2023-02-12T07:30:26;10.00;;;3.97;;
4963;SDS011;2497;47.410;9.740;2023-02-12T07:32:53;19.90;;;3.80;;
4963;SDS011;2497;47.410;9.740;2023-02-12T07:35:21;10.75;;;5.32;;
4963;SDS011;2497;47.410;9.740;2023-02-12T07:37:48;14.55;;;6.00;;
4963;SDS011;2497;47.410;9.740;2023-02-12T07:40:16;24.70;;;8.45;;
4963;SDS011;2497;47.410;9.740;2023-02-12T07:42:44;14.18;;;8.20;;
4963;SDS011;2497;47.410;9.740;2023-02-12T07:45:11;26.55;;;10.52;;
4963;SDS011;2497;47.410;9.740;2023-02-12T07:47:38;30.77;;;11.40;;
4963;SDS011;2497;47.410;9.740;2023-02-12T07:50:05;30.17;;;12.13;;
4963;SDS011;2497;47.410;9.740;2023-02-12T07:52:33;31.75;;;14.32;;
4963;SDS011;2497;47.410;9.740;2023-02-12T07:55:00;28.25;;;12.98;;
4963;SDS011;2497;47.410;9.740;2023-02-12T07:57:29;32.65;;;16.02;;
4963;SDS011;2497;47.410;9.740;2023-02-12T07:59:56;34.42;;;14.82;;
4963;SDS011;2497;47.410;9.740;2023-02-12T08:02:23;27.33;;;12.35;;
4963;SDS011;2497;47.410;9.740;2023-02-12T08:04:53;40.03;;;14.30;;
4963;SDS011;2497;47.410;9.740;2023-02-12T08:07:21;31.90;;;13.88;;
4963;SDS011;2497;47.410;9.740;2023-02-12T08:09:49;27.08;;;12.35;;
4963;SDS011;2497;47.410;9.740;2023-02-12T08:12:16;23.17;;;12.38;;
4963;SDS011;2497;47.410;9.740;2023-02-12T08:14:45;33.25;;;15.40;;
4963;SDS011;2497;47.410;9.740;2023-02-12T08:17:12;35.10;;;15.23;;
4963;SDS011;2497;47.410;9.740;2023-02-12T08:19:39;29.75;;;13.63;;
4963;SDS011;2497;47.410;9.740;2023-02-12T08:22:07;33.65;;;13.63;;
4963;SDS011;2497;47.410;9.740;2023-02-12T08:24:34;31.88;;;12.88;;
4963;SDS011;2497;47.410;9.740;2023-02-12T08:27:01;29.80;;;12.90;;
4963;SDS011;2497;47.410;9.740;2023-02-12T08:29:30;28.30;;;12.23;;
4963;SDS011;2497;47.410;9.740;2023-02-12T08:31:59;31.85;;;14.73;;
4963;SDS011;2497;47.410;9.740;2023-02-12T08:34:28;32.20;;;12.93;;
4963;SDS011;2497;47.410;9.740;2023-02-12T08:36:56;28.20;;;12.10;;
4963;SDS011;2497;47.410;9.740;2023-02-12T08:39:25;27.30;;;11.70;;
4963;SDS011;2497;47.410;9.740;2023-02-12T08:41:53;19.50;;;10.80;;
4963;SDS011;2497;47.410;9.740;2023-02-12T08:44:21;24.00;;;10.50;;
4963;SDS011;2497;47.410;9.740;2023-02-12T08:46:49;20.70;;;11.30;;
4963;SDS011;2497;47.410;9.740;2023-02-12T08:49:19;25.93;;;10.37;;
4963;SDS011;2497;47.410;9.740;2023-02-12T08:51:49;17.83;;;9.60;;
4963;SDS011;2497;47.410;9.740;2023-02-12T08:54:17;22.17;;;9.80;;
4963;SDS011;2497;47.410;9.740;2023-02-12T08:56:46;24.80;;;10.50;;
4963;SDS011;2497;47.410;9.740;2023-02-12T08:59:13;23.87;;;11.37;;
4963;SDS011;2497;47.410;9.740;2023-02-12T09:01:42;30.73;;;11.60;;
4963;SDS011;2497;47.410;9.740;2023-02-12T09:04:11;21.20;;;11.50;;
4963;SDS011;2497;47.410;9.740;2023-02-12T09:06:43;22.80;;;11.77;;
4963;SDS011;2497;47.410;9.740;2023-02-12T09:09:11;25.57;;;12.37;;
4963;SDS011;2497;47.410;9.740;2023-02-12T09:11:39;22.93;;;9.50;;
4963;SDS011;2497;47.410;9.740;2023-02-12T09:14:07;26.70;;;10.67;;
4963;SDS011;2497;47.410;9.740;2023-02-12T09:16:37;21.97;;;10.33;;
4963;SDS011;2497;47.410;9.740;2023-02-12T09:19:05;24.33;;;12.00;;
4963;SDS011;2497;47.410;9.740;2023-02-12T09:21:52;26.30;;;11.83;;
4963;SDS011;2497;47.410;9.740;2023-02-12T09:24:20;21.00;;;10.67;;
4963;SDS011;2497;47.410;9.740;2023-02-12T09:26:48;23.30;;;11.87;;
4963;SDS011;2497;47.410;9.740;2023-02-12T09:29:15;26.50;;;12.03;;
4963;SDS011;2497;47.410;9.740;2023-02-12T09:31:43;22.93;;;12.00;;
4963;SDS011;2497;47.410;9.740;2023-02-12T09:34:10;22.37;;;10.27;;
4963;SDS011;2497;47.410;9.740;2023-02-12T09:36:37;19.07;;;10.43;;
4963;SDS011;2497;47.410;9.740;2023-02-12T09:39:08;35.73;;;12.90;;
4963;SDS011;2497;47.410;9.740;2023-02-12T09:41:59;22.87;;;11.77;;
4963;SDS011;2497;47.410;9.740;2023-02-12T09:44:52;21.07;;;11.03;;
4963;SDS011;2497;47.410;9.740;2023-02-12T09:47:27;22.57;;;12.17;;
4963;SDS011;2497;47.410;9.740;2023-02-12T09:50:02;21.17;;;11.43;;
4963;SDS011;2497;47.410;9.740;2023-02-12T09:52:38;23.20;;;12.70;;
4963;SDS011;2497;47.410;9.740;2023-02-12T09:55:10;24.23;;;12.63;;
4963;SDS011;2497;47.410;9.740;2023-02-12T09:57:43;24.80;;;12.10;;
4963;SDS011;2497;47.410;9.740;2023-02-12T10:00:14;24.83;;;12.13;;
4963;SDS011;2497;47.410;9.740;2023-02-12T10:02:43;29.70;;;14.03;;
4963;SDS011;2497;47.410;9.740;2023-02-12T10:05:14;27.43;;;12.70;;
4963;SDS011;2497;47.410;9.740;2023-02-12T10:07:52;27.13;;;13.30;;
4963;SDS011;2497;47.410;9.740;2023-02-12T10:10:34;27.20;;;15.00;;
4963;SDS011;2497;47.410;9.740;2023-02-12T10:13:12;29.70;;;15.07;;
4963;SDS011;2497;47.410;9.740;2023-02-12T10:15:45;32.83;;;16.17;;
4963;SDS011;2497;47.410;9.740;2023-02-12T10:18:25;26.10;;;13.07;;
4963;SDS011;2497;47.410;9.740;2023-02-12T10:21:13;34.27;;;15.80;;
4963;SDS011;2497;47.410;9.740;2023-02-12T10:23:58;32.13;;;14.37;;
4963;SDS011;2497;47.410;9.740;2023-02-12T10:26:48;32.00;;;14.90;;
4963;SDS011;2497;47.410;9.740;2023-02-12T10:29:20;32.03;;;14.70;;
4963;SDS011;2497;47.410;9.740;2023-02-12T10:31:49;29.83;;;14.87;;
4963;SDS011;2497;47.410;9.740;2023-02-12T10:34:21;34.10;;;15.60;;
4963;SDS011;2497;47.410;9.740;2023-02-12T10:36:53;27.83;;;14.17;;
4963;SDS011;2497;47.410;9.740;2023-02-12T10:39:26;66.30;;;17.30;;
4963;SDS011;2497;47.410;9.740;2023-02-12T10:42:00;27.47;;;15.03;;
4963;SDS011;2497;47.410;9.740;2023-02-12T10:44:33;31.53;;;14.77;;
4963;SDS011;2497;47.410;9.740;2023-02-12T10:47:01;42.00;;;15.50;;
4963;SDS011;2497;47.410;9.740;2023-02-12T10:49:29;31.50;;;14.40;;
4963;SDS011;2497;47.410;9.740;2023-02-12T10:51:59;27.97;;;14.63;;
4963;SDS011;2497;47.410;9.740;2023-02-12T10:54:35;25.80;;;12.97;;
4963;SDS011;2497;47.410;9.740;2023-02-12T10:57:10;25.23;;;13.57;;
4963;SDS011;2497;47.410;9.740;2023-02-12T10:59:41;25.47;;;11.97;;
4963;SDS011;2497;47.410;9.740;2023-02-12T11:02:20;32.10;;;14.70;;
4963;SDS011;2497;47.410;9.740;2023-02-12T11:04:49;32.87;;;14.03;;
4963;SDS011;2497;47.410;9.740;2023-02-12T11:07:17;31.23;;;12.73;;
4963;SDS011;2497;47.410;9.740;2023-02-12T11:09:45;22.50;;;11.90;;
4963;SDS011;2497;47.410;9.740;2023-02-12T11:12:22;22.03;;;10.50;;
4963;SDS011;2497;47.410;9.740;2023-02-12T11:14:56;22.13;;;10.43;;
4963;SDS011;2497;47.410;9.740;2023-02-12T11:17:26;22.03;;;11.00;;
4963;SDS011;2497;47.410;9.740;2023-02-12T11:20:04;19.00;;;10.07;;
4963;SDS011;2497;47.410;9.740;2023-02-12T11:22:34;34.80;;;12.23;;
4963;SDS011;2497;47.410;9.740;2023-02-12T11:25:07;21.37;;;11.03;;
4963;SDS011;2497;47.410;9.740;2023-02-12T11:27:42;16.53;;;9.53;;
4963;SDS011;2497;47.410;9.740;2023-02-12T11:30:12;18.43;;;10.60;;
4963;SDS011;2497;47.410;9.740;2023-02-12T11:32:42;15.43;;;9.07;;
4963;SDS011;2497;47.410;9.740;2023-02-12T11:35:12;19.70;;;9.20;;
4963;SDS011;2497;47.410;9.740;2023-02-12T11:37:48;19.37;;;9.10;;
4963;SDS011;2497;47.410;9.740;2023-02-12T11:40:18;19.70;;;8.40;;
4963;SDS011;2497;47.410;9.740;2023-02-12T11:42:50;13.83;;;8.10;;
4963;SDS011;2497;47.410;9.740;2023-02-12T11:45:20;14.43;;;8.50;;
4963;SDS011;2497;47.410;9.740;2023-02-12T11:47:55;21.33;;;8.67;;
4963;SDS011;2497;47.410;9.740;2023-02-12T11:50:24;18.13;;;9.37;;
4963;SDS011;2497;47.410;9.740;2023-02-12T11:52:55;15.50;;;8.27;;
4963;SDS011;2497;47.410;9.740;2023-02-12T11:55:27;12.47;;;7.00;;
4963;SDS011;2497;47.410;9.740;2023-02-12T11:58:02;15.30;;;6.97;;
4963;SDS011;2497;47.410;9.740;2023-02-12T12:00:31;15.20;;;6.80;;
4963;SDS011;2497;47.410;9.740;2023-02-12T12:03:03;13.40;;;7.07;;
4963;SDS011;2497;47.410;9.740;2023-02-12T12:05:39;16.30;;;7.30;;
4963;SDS011;2497;47.410;9.740;2023-02-12T12:08:13;14.23;;;7.63;;
4963;SDS011;2497;47.410;9.740;2023-02-12T12:10:53;15.47;;;7.63;;
4963;SDS011;2497;47.410;9.740;2023-02-12T12:13:28;13.80;;;7.70;;
4963;SDS011;2497;47.410;9.740;2023-02-12T12:16:03;16.77;;;8.90;;
4963;SDS011;2497;47.410;9.740;2023-02-12T12:18:54;17.57;;;9.30;;
4963;SDS011;2497;47.410;9.740;2023-02-12T12:21:44;15.50;;;8.20;;
4963;SDS011;2497;47.410;9.740;2023-02-12T12:24:16;17.63;;;7.83;;
4963;SDS011;2497;47.410;9.740;2023-02-12T12:26:49;19.53;;;9.57;;
4963;SDS011;2497;47.410;9.740;2023-02-12T12:29:28;16.47;;;9.10;;
4963;SDS011;2497;47.410;9.740;2023-02-12T12:32:08;18.07;;;8.00;;
4963;SDS011;2497;47.410;9.740;2023-02-12T12:34:40;15.37;;;8.07;;
4963;SDS011;2497;47.410;9.740;2023-02-12T12:37:20;13.70;;;6.80;;
4963;SDS011;2497;47.410;9.740;2023-02-12T12:40:10;11.10;;;6.60;;
4963;SDS011;2497;47.410;9.740;2023-02-12T12:43:00;13.00;;;7.17;;
4963;SDS011;2497;47.410;9.740;2023-02-12T12:45:41;12.90;;;7.30;;
4963;SDS011;2497;47.410;9.740;2023-02-12T12:48:38;11.63;;;6.67;;
4963;SDS011;2497;47.410;9.740;2023-02-12T12:51:23;10.23;;;6.43;;
4963;SDS011;2497;47.410;9.740;2023-02-12T12:54:06;12.07;;;6.90;;
4963;SDS011;2497;47.410;9.740;2023-02-12T12:56:48;10.23;;;5.93;;
4963;SDS011;2497;47.410;9.740;2023-02-12T13:02:41;14.43;;;7.60;;
4963;SDS011;2497;47.410;9.740;2023-02-12T13:05:38;10.30;;;6.23;;
4963;SDS011;2497;47.410;9.740;2023-02-12T13:08:31;11.90;;;6.40;;
4963;SDS011;2497;47.410;9.740;2023-02-12T13:11:16;16.07;;;8.53;;
4963;SDS011;2497;47.410;9.740;2023-02-12T13:14:00;15.40;;;8.20;;
4963;SDS011;2497;47.410;9.740;2023-02-12T13:16:35;17.17;;;9.37;;
4963;SDS011;2497;47.410;9.740;2023-02-12T13:19:14;12.27;;;7.17;;
4963;SDS011;2497;47.410;9.740;2023-02-12T13:21:50;18.77;;;8.10;;
4963;SDS011;2497;47.410;9.740;2023-02-12T13:24:24;20.90;;;8.67;;
4963;SDS011;2497;47.410;9.740;2023-02-12T13:26:57;14.23;;;8.30;;
4963;SDS011;2497;47.410;9.740;2023-02-12T13:29:28;23.03;;;11.03;;
4963;SDS011;2497;47.410;9.740;2023-02-12T13:32:02;16.43;;;9.30;;
4963;SDS011;2497;47.410;9.740;2023-02-12T13:34:39;13.90;;;8.63;;
4963;SDS011;2497;47.410;9.740;2023-02-12T13:37:10;14.63;;;9.27;;
4963;SDS011;2497;47.410;9.740;2023-02-12T13:39:44;18.23;;;9.97;;
4963;SDS011;2497;47.410;9.740;2023-02-12T13:42:22;22.90;;;11.30;;
4963;SDS011;2497;47.410;9.740;2023-02-12T13:45:00;24.07;;;10.80;;
4963;SDS011;2497;47.410;9.740;2023-02-12T13:47:43;25.53;;;10.93;;
4963;SDS011;2497;47.410;9.740;2023-02-12T13:50:22;33.50;;;13.93;;
4963;SDS011;2497;47.410;9.740;2023-02-12T13:53:01;27.03;;;13.47;;
4963;SDS011;2497;47.410;9.740;2023-02-12T13:55:45;20.70;;;11.23;;
4963;SDS011;2497;47.410;9.740;2023-02-12T13:58:39;19.83;;;10.00;;
4963;SDS011;2497;47.410;9.740;2023-02-12T14:04:20;18.70;;;9.77;;
4963;SDS011;2497;47.410;9.740;2023-02-12T14:07:00;18.13;;;10.77;;
4963;SDS011;2497;47.410;9.740;2023-02-12T14:09:35;20.33;;;11.57;;
4963;SDS011;2497;47.410;9.740;2023-02-12T14:12:07;25.47;;;12.03;;
4963;SDS011;2497;47.410;9.740;2023-02-12T14:14:38;19.73;;;10.50;;
4963;SDS011;2497;47.410;9.740;2023-02-12T14:20:19;27.20;;;11.43;;
4963;SDS011;2497;47.410;9.740;2023-02-12T14:22:58;22.47;;;11.40;;
4963;SDS011;2497;47.410;9.740;2023-02-12T14:25:30;27.87;;;12.60;;
4963;SDS011;2497;47.410;9.740;2023-02-12T14:28:11;23.53;;;12.57;;
4963;SDS011;2497;47.410;9.740;2023-02-12T14:37:37;25.80;;;11.93;;
4963;SDS011;2497;47.410;9.740;2023-02-12T14:40:35;22.30;;;11.77;;
4963;SDS011;2497;47.410;9.740;2023-02-12T14:45:58;20.77;;;11.33;;
4963;SDS011;2497;47.410;9.740;2023-02-12T14:49:15;24.77;;;13.07;;
4963;SDS011;2497;47.410;9.740;2023-02-12T14:51:50;24.70;;;12.53;;
4963;SDS011;2497;47.410;9.740;2023-02-12T14:54:25;21.40;;;12.63;;
4963;SDS011;2497;47.410;9.740;2023-02-12T14:56:59;22.90;;;12.13;;
4963;SDS011;2497;47.410;9.740;2023-02-12T14:59:32;29.27;;;12.70;;
4963;SDS011;2497;47.410;9.740;2023-02-12T15:02:05;20.47;;;11.57;;
4963;SDS011;2497;47.410;9.740;2023-02-12T15:04:39;20.67;;;12.07;;
4963;SDS011;2497;47.410;9.740;2023-02-12T15:07:11;23.63;;;12.40;;
4963;SDS011;2497;47.410;9.740;2023-02-12T15:09:45;24.37;;;13.00;;
4963;SDS011;2497;47.410;9.740;2023-02-12T15:12:20;24.73;;;11.40;;
4963;SDS011;2497;47.410;9.740;2023-02-12T15:14:57;25.17;;;12.80;;
4963;SDS011;2497;47.410;9.740;2023-02-12T15:17:33;23.67;;;12.07;;
4963;SDS011;2497;47.410;9.740;2023-02-12T15:20:04;22.77;;;11.80;;
4963;SDS011;2497;47.410;9.740;2023-02-12T15:22:42;21.27;;;11.47;;
4963;SDS011;2497;47.410;9.740;2023-02-12T15:25:14;19.37;;;10.63;;
4963;SDS011;2497;47.410;9.740;2023-02-12T15:30:36;20.13;;;9.23;;
4963;SDS011;2497;47.410;9.740;2023-02-12T15:33:15;16.53;;;9.20;;
4963;SDS011;2497;47.410;9.740;2023-02-12T15:35:50;15.13;;;8.40;;
4963;SDS011;2497;47.410;9.740;2023-02-12T15:38:19;16.90;;;8.07;;
4963;SDS011;2497;47.410;9.740;2023-02-12T15:40:53;19.10;;;8.40;;
4963;SDS011;2497;47.410;9.740;2023-02-12T15:43:39;15.40;;;8.17;;
4963;SDS011;2497;47.410;9.740;2023-02-12T15:46:12;12.03;;;7.00;;
4963;SDS011;2497;47.410;9.740;2023-02-12T15:48:43;15.00;;;7.00;;
4963;SDS011;2497;47.410;9.740;2023-02-12T15:51:14;14.30;;;7.00;;
4963;SDS011;2497;47.410;9.740;2023-02-12T15:53:46;14.07;;;7.87;;
4963;SDS011;2497;47.410;9.740;2023-02-12T15:56:15;13.77;;;7.13;;
4963;SDS011;2497;47.410;9.740;2023-02-12T15:58:50;10.03;;;6.13;;